createdAt,value
2023-01-09T00:03:50.003Z,96387.38
2023-01-09T00:08:51.366Z,96378.13
2023-01-09T00:13:52.740Z,96367.75
2023-01-09T00:18:54.219Z,96362.81
2023-01-09T00:23:55.646Z,96353.41
2023-01-09T00:28:57.572Z,96346.50
2023-01-09T00:34:06.433Z,96350.53
2023-01-09T00:39:07.831Z,96336.63
2023-01-09T00:44:31.839Z,96331.72
2023-01-09T00:49:36.003Z,96319.84
2023-01-09T00:54:38.046Z,96312.13
2023-01-09T00:59:40.072Z,96304.44
2023-01-09T01:05:00.162Z,96295.88
2023-01-09T01:10:01.580Z,96294.06
2023-01-09T01:15:03.575Z,96289.44
2023-01-09T01:20:05.852Z,96285.19
2023-01-09T01:25:08.629Z,96284.00
2023-01-09T01:30:11.512Z,96277.50
2023-01-09T01:35:13.270Z,96266.28
2023-01-09T01:40:14.597Z,96260.16
2023-01-09T01:45:19.383Z,96251.38
2023-01-09T01:50:30.089Z,96234.25
2023-01-09T01:55:33.318Z,96245.84
2023-01-09T02:00:37.004Z,96236.91
2023-01-09T02:05:39.155Z,96224.44
2023-01-09T02:10:40.951Z,96223.00
2023-01-09T02:15:46.797Z,96209.75
2023-01-09T02:20:48.691Z,96192.81
2023-01-09T02:25:56.387Z,96187.94
2023-01-09T02:31:01.122Z,96178.38
2023-01-09T02:36:10.129Z,96178.19
2023-01-09T02:41:16.813Z,96169.66
2023-01-09T02:46:19.904Z,96172.28
2023-01-09T02:51:21.263Z,96173.09
2023-01-09T02:56:31.407Z,96170.88
2023-01-09T03:01:52.051Z,96175.75
2023-01-09T03:06:54.142Z,96166.97
2023-01-09T03:12:04.575Z,96167.19
2023-01-09T03:17:07.716Z,96171.06
2023-01-09T03:22:09.149Z,96171.69
2023-01-09T03:27:10.650Z,96165.97
2023-01-09T03:32:12.256Z,96153.28
2023-01-09T03:37:13.881Z,96147.00
2023-01-09T03:42:15.211Z,96147.19
2023-01-09T03:47:16.551Z,96144.31
2023-01-09T03:52:17.856Z,96135.34
2023-01-09T03:57:19.196Z,96122.28
2023-01-09T04:02:20.560Z,96119.41
2023-01-09T04:07:21.876Z,96114.91
2023-01-09T04:12:23.282Z,96109.19
2023-01-09T04:17:24.600Z,96100.81
2023-01-09T04:22:25.913Z,96104.69
2023-01-09T04:27:27.281Z,96109.41
2023-01-09T04:32:28.649Z,96108.78
2023-01-09T04:37:30.065Z,96105.50
2023-01-09T04:42:31.391Z,96100.19
2023-01-09T04:47:32.776Z,96101.22
2023-01-09T04:52:34.089Z,96105.50
2023-01-09T04:57:35.880Z,96100.81
2023-01-09T05:02:37.696Z,96095.31
2023-01-09T05:07:39.217Z,96093.69
2023-01-09T05:12:40.646Z,96093.50
2023-01-09T05:17:42.004Z,96092.88
2023-01-09T05:22:43.323Z,96086.53
2023-01-09T05:27:46.226Z,96078.16
2023-01-09T05:32:47.672Z,96078.16
2023-01-09T05:37:49.001Z,96079.81
2023-01-09T05:42:50.342Z,96084.50
2023-01-09T05:47:51.668Z,96080.19
2023-01-09T05:52:52.999Z,96074.66
2023-01-09T05:57:54.317Z,96069.56
2023-01-09T06:02:55.741Z,96064.69
2023-01-09T06:07:57.091Z,96061.84
2023-01-09T06:12:58.418Z,96064.69
2023-01-09T06:17:59.738Z,96064.06
2023-01-09T06:23:01.178Z,96062.44
2023-01-09T06:28:02.533Z,96065.88
2023-01-09T06:33:03.918Z,96067.91
2023-01-09T06:38:05.297Z,96081.81
2023-01-09T06:43:06.631Z,96073.25
2023-01-09T06:48:07.971Z,96084.69
2023-01-09T06:53:10.584Z,96089.59
2023-01-09T06:58:12.196Z,96080.19
2023-01-09T07:03:19.484Z,96090.81
2023-01-09T07:08:20.861Z,96093.47
2023-01-09T07:13:22.190Z,96092.47
2023-01-09T07:18:23.518Z,96099.38
2023-01-09T07:23:24.830Z,96092.06
2023-01-09T07:28:26.325Z,96088.38
2023-01-09T07:33:27.818Z,96077.75
2023-01-09T07:38:29.251Z,96083.06
2023-01-09T07:43:30.619Z,96095.72
2023-01-09T07:48:32.204Z,96109.59
2023-01-09T07:53:33.643Z,96114.91
2023-01-09T07:58:34.965Z,96105.91
2023-01-09T08:03:36.315Z,96113.69
2023-01-09T08:08:37.703Z,96118.59
2023-01-09T08:13:39.032Z,96119.81
2023-01-09T08:18:40.414Z,96114.09
2023-01-09T08:23:41.846Z,96122.06
2023-01-09T08:28:43.444Z,96126.16
2023-01-09T08:33:44.795Z,96139.19
2023-01-09T08:38:46.157Z,96139.59
2023-01-09T08:44:05.973Z,96160.25
2023-01-09T08:49:07.539Z,96167.41
2023-01-09T08:54:08.840Z,96178.66
2023-01-09T08:59:11.138Z,96178.03
2023-01-09T09:04:12.494Z,96193.78
2023-01-09T09:09:13.866Z,96189.44
2023-01-09T09:14:34.117Z,96195.38
2023-01-09T09:19:35.461Z,96201.50
2023-01-09T09:24:36.863Z,96208.47
2023-01-09T09:29:38.493Z,96208.88
2023-01-09T09:34:39.823Z,96204.81
2023-01-09T09:39:41.185Z,96211.72
2023-01-09T09:45:00.663Z,96213.38
2023-01-09T09:50:17.257Z,96219.88
2023-01-09T09:55:21.114Z,96233.34
2023-01-09T10:00:23.415Z,96237.84
2023-01-09T10:05:45.034Z,96234.13
2023-01-09T10:10:51.917Z,96249.66
2023-01-09T10:16:01.430Z,96248.22
2023-01-09T10:21:02.723Z,96254.97
2023-01-09T10:26:07.156Z,96269.91
2023-01-09T10:31:19.706Z,96272.19
2023-01-09T10:36:32.445Z,96293.91
2023-01-09T10:41:40.305Z,96307.00
2023-01-09T10:46:45.569Z,96295.63
2023-01-09T10:51:51.044Z,96306.84
2023-01-09T10:57:02.240Z,96315.59
2023-01-09T11:02:03.663Z,96324.13
2023-01-09T11:07:21.881Z,96328.41
2023-01-09T11:12:27.770Z,96331.91
2023-01-09T11:17:29.075Z,96328.88
2023-01-09T11:22:41.604Z,96331.31
2023-01-09T11:27:43.079Z,96333.31
2023-01-09T11:32:45.013Z,96339.88
2023-01-09T11:37:47.573Z,96343.50
2023-01-09T11:43:06.084Z,96350.44
2023-01-09T11:48:17.664Z,96344.72
2023-01-09T11:53:20.251Z,96333.13
2023-01-09T11:58:22.093Z,96332.34
2023-01-09T12:03:42.106Z,96336.19
2023-01-09T12:09:03.976Z,96344.56
2023-01-09T12:14:11.572Z,96334.78
2023-01-09T12:19:22.132Z,96338.09
2023-01-09T12:24:41.728Z,96347.75
2023-01-09T12:29:52.151Z,96368.41
2023-01-09T12:35:03.040Z,96364.19
2023-01-09T12:40:04.410Z,96374.34
2023-01-09T12:45:28.262Z,96371.88
2023-01-09T12:50:32.529Z,96379.63
2023-01-09T12:55:36.851Z,96372.06
2023-01-09T13:00:41.587Z,96375.50
2023-01-09T13:05:45.401Z,96393.28
2023-01-09T13:10:52.407Z,96395.13
2023-01-09T13:15:55.723Z,96410.69
2023-01-09T13:20:57.925Z,96414.03
2023-01-09T13:26:04.432Z,96412.22
2023-01-09T13:31:16.033Z,96401.38
2023-01-09T13:36:24.481Z,96411.59
2023-01-09T13:41:45.885Z,96414.47
2023-01-09T13:46:48.637Z,96417.22
2023-01-09T13:51:58.484Z,96429.75
2023-01-09T13:57:18.395Z,96443.84
2023-01-09T14:02:35.043Z,96442.38
2023-01-09T14:07:37.345Z,96447.53
2023-01-09T14:12:40.588Z,96456.53
2023-01-09T14:17:42.245Z,96464.56
2023-01-09T14:22:55.851Z,96476.66
2023-01-09T14:27:57.985Z,96475.84
2023-01-09T14:33:23.577Z,96472.78
2023-01-09T14:38:34.186Z,96483.41
2023-01-09T14:43:52.563Z,96489.75
2023-01-09T14:48:53.866Z,96489.31
2023-01-09T14:53:56.059Z,96493.56
2023-01-09T14:59:04.640Z,96501.53
2023-01-09T15:04:13.122Z,96506.19
2023-01-09T15:09:24.363Z,96502.13
2023-01-09T15:14:33.692Z,96500.47
2023-01-09T15:19:35.024Z,96519.44
2023-01-09T15:24:36.469Z,96513.28
2023-01-09T15:29:37.970Z,96515.84
2023-01-09T15:34:39.514Z,96521.25
2023-01-09T15:39:40.925Z,96528.72
2023-01-09T15:44:44.205Z,96523.75
2023-01-09T15:49:46.460Z,96523.88
2023-01-09T15:54:49.026Z,96533.44
2023-01-09T15:59:50.632Z,96546.59
2023-01-09T16:04:53.057Z,96549.41
2023-01-09T16:09:54.557Z,96557.97
2023-01-09T16:14:57.650Z,96556.72
2023-01-09T16:20:12.917Z,96557.84
2023-01-09T16:25:36.948Z,96545.09
2023-01-09T16:30:39.433Z,96549.50
2023-01-09T16:35:40.772Z,96562.50
2023-01-09T16:41:19.873Z,96568.16
2023-01-09T16:46:21.382Z,96583.19
2023-01-09T16:51:25.603Z,96589.22
2023-01-09T16:56:29.621Z,96590.34
2023-01-09T17:01:31.098Z,96595.94
2023-01-09T17:06:32.561Z,96589.16
2023-01-09T17:11:33.992Z,96596.47
2023-01-09T17:16:36.173Z,96612.34
2023-01-09T17:21:38.076Z,96597.03
2023-01-09T17:26:59.321Z,96614.09
2023-01-09T17:32:00.918Z,96619.97
2023-01-09T17:37:04.370Z,96613.19
2023-01-09T17:42:06.239Z,96609.09
2023-01-09T17:47:13.663Z,96629.47
2023-01-09T17:52:15.096Z,96631.28
2023-01-09T17:57:17.423Z,96642.06
2023-01-09T18:02:19.104Z,96643.22
2023-01-09T18:07:20.848Z,96649.72
2023-01-09T18:12:22.243Z,96647.41
2023-01-09T18:17:23.710Z,96648.63
2023-01-09T18:22:25.309Z,96655.56
2023-01-09T18:27:27.261Z,96660.50
2023-01-09T18:32:28.784Z,96666.91
2023-01-09T18:37:30.222Z,96666.53
2023-01-09T18:42:31.596Z,96667.34
2023-01-09T18:47:33.123Z,96676.56
2023-01-09T18:52:34.587Z,96673.91
2023-01-09T18:57:36.002Z,96673.91
2023-01-09T19:02:37.466Z,96686.25
2023-01-09T19:07:38.853Z,96673.47
2023-01-09T19:12:40.243Z,96684.50
2023-01-09T19:17:41.730Z,96678.03
2023-01-09T19:22:43.163Z,96691.47
2023-01-09T19:27:46.659Z,96705.72
2023-01-09T19:32:48.043Z,96713.84
2023-01-09T19:37:49.746Z,96729.75
2023-01-09T19:42:55.407Z,96739.97
2023-01-09T19:47:57.143Z,96740.59
2023-01-09T19:52:58.502Z,96749.56
2023-01-09T19:57:59.938Z,96759.13
2023-01-09T20:03:01.500Z,96766.81
2023-01-09T20:08:06.237Z,96771.25
2023-01-09T20:13:07.849Z,96780.09
2023-01-09T20:18:10.291Z,96793.66
2023-01-09T20:23:16.596Z,96795.56
2023-01-09T20:28:18.100Z,96808.63
2023-01-09T20:33:20.700Z,96814.75
2023-01-09T20:38:23.542Z,96811.94
2023-01-09T20:43:29.833Z,96831.13
2023-01-09T20:48:31.276Z,96843.13
2023-01-09T20:53:32.861Z,96847.31
2023-01-09T20:58:34.265Z,96846.59
2023-01-09T21:03:35.729Z,96854.66
2023-01-09T21:08:37.286Z,96861.06
2023-01-09T21:13:39.035Z,96866.16
2023-01-09T21:18:40.630Z,96873.16
2023-01-09T21:23:49.058Z,96877.34
2023-01-09T21:28:54.925Z,96885.38
2023-01-09T21:33:56.562Z,96882.81
2023-01-09T21:38:58.726Z,96900.41
2023-01-09T21:44:18.823Z,96898.22
2023-01-09T21:49:20.897Z,96904.75
2023-01-09T21:54:25.492Z,96924.22
2023-01-09T21:59:27.214Z,96941.50
2023-01-09T22:04:29.524Z,96951.34
2023-01-09T22:09:30.969Z,96963.78
2023-01-09T22:14:32.351Z,96953.53
2023-01-09T22:19:33.783Z,96951.91
2023-01-09T22:24:35.444Z,96947.44
2023-01-09T22:29:36.793Z,96934.38
2023-01-09T22:34:39.190Z,96935.53
2023-01-09T22:39:40.526Z,96931.75
2023-01-09T22:44:41.879Z,96937.75
2023-01-09T22:49:52.486Z,96941.09
2023-01-09T22:54:55.066Z,96949.91
2023-01-09T22:59:56.430Z,96982.03
2023-01-09T23:04:58.335Z,96984.00
2023-01-09T23:10:01.891Z,96993.44
2023-01-09T23:15:03.394Z,96990.03
2023-01-09T23:20:05.023Z,96995.50
2023-01-09T23:25:06.602Z,96991.03
2023-01-09T23:30:09.729Z,96988.88
2023-01-09T23:35:11.079Z,97011.91
2023-01-09T23:40:12.520Z,97013.25
2023-01-09T23:45:13.906Z,97024.53
2023-01-09T23:50:15.537Z,97051.00
2023-01-09T23:55:16.874Z,97059.22
